Time;durP1;ratioP1;P1;durP2;ratioP2;P2;SDS_P1;SDS_P2;PMS_P1;PMS_P2;Temp;Humidity;BMP_temperature;BMP_pressure;BME280_temperature;BME280_humidity;BME280_pressure;Samples;Min_cycle;Max_cycle;Signal;HPM_P1;HPM_P2
2021/05/28 00:00:41;;;;;;;10.00;3.65;;;11.20;95.40;;;;;;5070909;28;20031;-75
2021/05/28 00:03:07;;;;;;;8.43;3.72;;;11.20;95.40;;;;;;5067886;28;20045;-75
2021/05/28 00:05:33;;;;;;;8.93;3.88;;;11.20;95.50;;;;;;5068537;28;20501;-74
2021/05/28 00:07:59;;;;;;;7.32;3.75;;;11.20;95.60;;;;;;5072889;28;20044;-75
2021/05/28 00:10:25;;;;;;;6.07;3.65;;;11.20;95.60;;;;;;5053745;28;20029;-75
2021/05/28 00:12:51;;;;;;;7.25;3.17;;;11.20;95.60;;;;;;5072623;28;20056;-75
2021/05/28 00:15:18;;;;;;;7.80;3.72;;;11.20;95.60;;;;;;5067609;28;20086;-74
2021/05/28 00:17:43;;;;;;;9.38;3.50;;;11.20;95.60;;;;;;5069909;28;20499;-75
2021/05/28 00:20:12;;;;;;;8.50;4.20;;;11.20;95.50;;;;;;5067855;28;20130;-75
2021/05/28 00:22:38;;;;;;;8.07;3.92;;;11.20;95.50;;;;;;5069818;28;20492;-75
2021/05/28 00:25:05;;;;;;;8.50;5.45;;;11.20;95.60;;;;;;5069698;28;20048;-76
2021/05/28 00:27:30;;;;;;;9.00;4.05;;;11.10;95.50;;;;;;5072885;28;20483;-75
2021/05/28 00:29:58;;;;;;;12.98;4.35;;;11.10;95.60;;;;;;5071158;28;20047;-75
2021/05/28 00:32:23;;;;;;;9.07;4.78;;;11.10;95.60;;;;;;5070740;28;20192;-75
2021/05/28 00:34:50;;;;;;;8.40;4.40;;;11.10;95.60;;;;;;5066501;28;20050;-74
2021/05/28 00:37:16;;;;;;;14.18;4.95;;;11.10;95.60;;;;;;5047697;28;20039;-75
2021/05/28 00:39:42;;;;;;;9.80;4.57;;;11.10;95.70;;;;;;5047536;28;20024;-75
2021/05/28 00:42:07;;;;;;;10.38;4.70;;;11.00;95.70;;;;;;5069289;28;20097;-75
2021/05/28 00:44:33;;;;;;;13.40;5.45;;;11.00;95.70;;;;;;5039722;28;20048;-76
2021/05/28 00:46:59;;;;;;;9.65;4.88;;;11.00;95.70;;;;;;5069104;28;20059;-75
2021/05/28 00:49:25;;;;;;;8.40;4.68;;;11.00;95.70;;;;;;5071783;28;20115;-75
2021/05/28 00:51:51;;;;;;;12.63;5.35;;;11.00;95.70;;;;;;5072338;28;20033;-75
2021/05/28 00:54:17;;;;;;;10.70;6.18;;;11.00;95.80;;;;;;5069454;28;20025;-75
2021/05/28 00:56:43;;;;;;;12.15;5.70;;;10.90;95.80;;;;;;5072034;28;20020;-75
2021/05/28 00:59:10;;;;;;;13.13;6.03;;;10.90;95.70;;;;;;5061940;28;20036;-75
2021/05/28 01:01:36;;;;;;;12.13;5.63;;;10.90;95.90;;;;;;5066295;28;20024;-76
2021/05/28 01:04:02;;;;;;;10.48;5.75;;;10.90;95.90;;;;;;5067427;28;20029;-75
2021/05/28 01:06:28;;;;;;;10.75;5.43;;;10.90;95.90;;;;;;5050386;28;20025;-75
2021/05/28 01:08:56;;;;;;;17.70;6.47;;;10.80;95.90;;;;;;5070690;28;20042;-75
2021/05/28 01:11:23;;;;;;;14.85;6.07;;;10.80;96.00;;;;;;5071368;28;20033;-75
2021/05/28 01:13:49;;;;;;;12.27;5.63;;;10.80;96.00;;;;;;5069009;28;20028;-75
2021/05/28 01:16:15;;;;;;;14.48;6.07;;;10.80;96.00;;;;;;5071736;28;20094;-75
2021/05/28 01:18:41;;;;;;;17.95;7.47;;;10.70;95.90;;;;;;5060710;28;20020;-75
2021/05/28 01:21:08;;;;;;;10.45;5.75;;;10.70;95.90;;;;;;5070492;28;20026;-75
2021/05/28 01:23:36;;;;;;;17.60;5.63;;;10.70;95.80;;;;;;5055853;28;20024;-75
2021/05/28 01:26:05;;;;;;;11.38;6.07;;;10.60;95.80;;;;;;5050016;28;20082;-75
2021/05/28 01:28:31;;;;;;;11.88;6.20;;;10.60;95.80;;;;;;5061501;28;20032;-75
2021/05/28 01:30:58;;;;;;;10.95;5.53;;;10.60;95.70;;;;;;5064392;28;20029;-75
2021/05/28 01:33:26;;;;;;;9.55;5.50;;;10.60;95.70;;;;;;5068507;28;20553;-75
2021/05/28 01:35:52;;;;;;;11.68;6.07;;;10.60;95.70;;;;;;5069430;28;21328;-75
2021/05/28 01:38:18;;;;;;;9.65;5.10;;;10.60;95.70;;;;;;5065551;28;20028;-75
2021/05/28 01:40:44;;;;;;;17.63;5.18;;;10.60;95.60;;;;;;5064711;28;20029;-72
2021/05/28 01:43:10;;;;;;;14.13;5.80;;;10.60;95.60;;;;;;5065684;28;20031;-74
2021/05/28 01:45:36;;;;;;;12.30;5.30;;;10.60;95.50;;;;;;5070651;28;20032;-74
2021/05/28 01:48:03;;;;;;;10.68;5.32;;;10.50;95.40;;;;;;5064057;28;20032;-74
2021/05/28 01:50:29;;;;;;;9.70;5.80;;;10.50;95.50;;;;;;5069627;28;20029;-74
2021/05/28 01:52:54;;;;;;;8.70;4.90;;;10.50;95.40;;;;;;5071343;28;20050;-77
2021/05/28 01:55:20;;;;;;;9.80;4.60;;;10.40;95.40;;;;;;5063636;28;20055;-75
2021/05/28 01:57:46;;;;;;;11.55;5.43;;;10.40;95.40;;;;;;5065550;28;20047;-75
2021/05/28 02:00:15;;;;;;;12.30;5.60;;;10.40;95.40;;;;;;5062230;28;20025;-75
2021/05/28 02:02:41;;;;;;;9.13;4.80;;;10.40;95.40;;;;;;5063937;28;20056;-74
2021/05/28 02:05:08;;;;;;;17.38;5.82;;;10.30;95.40;;;;;;5069945;28;20496;-75
2021/05/28 02:07:34;;;;;;;8.77;4.97;;;10.30;95.30;;;;;;5065290;28;20033;-74
2021/05/28 02:10:00;;;;;;;10.10;4.75;;;10.30;95.30;;;;;;5059545;28;20099;-75
2021/05/28 02:12:25;;;;;;;10.75;5.53;;;10.30;95.40;;;;;;5063922;28;20460;-74
2021/05/28 02:14:55;;;;;;;9.05;5.00;;;10.30;95.40;;;;;;5064333;28;20032;-74
2021/05/28 02:17:21;;;;;;;10.05;5.05;;;10.20;95.30;;;;;;5060201;28;20463;-75
2021/05/28 02:19:47;;;;;;;10.50;5.28;;;10.20;95.30;;;;;;5067791;28;20032;-74
2021/05/28 02:22:14;;;;;;;7.07;4.18;;;10.20;95.30;;;;;;5044734;28;20032;-75
2021/05/28 02:24:39;;;;;;;8.88;5.40;;;10.20;95.30;;;;;;5070080;28;20031;-74
2021/05/28 02:27:05;;;;;;;7.70;4.45;;;10.20;95.20;;;;;;5067258;28;20084;-74
2021/05/28 02:29:31;;;;;;;10.00;4.68;;;10.20;95.20;;;;;;5060526;28;20102;-75
2021/05/28 02:31:57;;;;;;;7.35;4.32;;;10.10;95.20;;;;;;5069110;28;20059;-76
2021/05/28 02:34:22;;;;;;;9.93;5.40;;;10.10;95.20;;;;;;5069185;28;20073;-74
2021/05/28 02:36:48;;;;;;;8.60;5.13;;;10.10;95.20;;;;;;5050024;28;20025;-74
2021/05/28 02:39:14;;;;;;;10.07;4.80;;;10.10;95.20;;;;;;5044207;28;20020;-74
2021/05/28 02:41:39;;;;;;;9.15;5.25;;;10.10;95.10;;;;;;5061159;28;20052;-74
2021/05/28 02:44:05;;;;;;;10.23;5.75;;;10.10;95.20;;;;;;5056702;28;20087;-74
2021/05/28 02:46:34;;;;;;;9.13;5.18;;;10.10;95.20;;;;;;5057688;28;20028;-75
2021/05/28 02:49:01;;;;;;;11.45;5.63;;;10.00;95.20;;;;;;5064880;28;20029;-74
2021/05/28 02:51:27;;;;;;;10.50;5.82;;;10.00;95.20;;;;;;5057524;28;20127;-75
2021/05/28 02:53:53;;;;;;;13.05;5.70;;;10.00;95.20;;;;;;5063692;28;20107;-75
2021/05/28 02:56:18;;;;;;;10.98;5.65;;;10.00;95.20;;;;;;5070846;28;20072;-74
2021/05/28 02:58:44;;;;;;;13.43;5.57;;;10.00;95.30;;;;;;5065878;28;20127;-75
2021/05/28 03:01:10;;;;;;;14.52;6.25;;;10.00;95.20;;;;;;5046461;28;20013;-74
2021/05/28 03:03:38;;;;;;;8.13;5.18;;;10.00;95.00;;;;;;5067975;28;20021;-74
2021/05/28 03:06:04;;;;;;;14.60;5.53;;;10.00;95.00;;;;;;5063783;28;20542;-75
2021/05/28 03:08:30;;;;;;;12.18;6.03;;;10.00;95.00;;;;;;5064522;28;20119;-74
2021/05/28 03:10:56;;;;;;;10.77;5.07;;;10.00;94.90;;;;;;5064289;28;20062;-74
2021/05/28 03:13:23;;;;;;;15.05;5.40;;;10.00;94.90;;;;;;5065386;28;20033;-74
2021/05/28 03:15:49;;;;;;;8.20;4.97;;;10.00;94.80;;;;;;5074291;28;20032;-74
2021/05/28 03:18:16;;;;;;;11.18;4.90;;;10.00;94.60;;;;;;5067631;28;20097;-74
2021/05/28 03:20:46;;;;;;;7.82;4.53;;;10.10;94.50;;;;;;5071880;28;20100;-74
2021/05/28 03:23:12;;;;;;;10.52;4.55;;;10.00;94.50;;;;;;5068853;28;20091;-75
2021/05/28 03:25:38;;;;;;;8.23;5.05;;;10.10;94.50;;;;;;5047686;28;20066;-75
2021/05/28 03:28:04;;;;;;;12.32;5.35;;;10.10;94.40;;;;;;5062670;28;20029;-75
2021/05/28 03:30:30;;;;;;;10.55;4.40;;;10.10;94.20;;;;;;5064055;28;20016;-75
2021/05/28 03:32:55;;;;;;;8.00;4.20;;;10.10;94.30;;;;;;5063068;28;20024;-74
2021/05/28 03:35:21;;;;;;;10.85;4.13;;;10.20;94.20;;;;;;5060216;28;20120;-75
2021/05/28 03:37:47;;;;;;;9.18;4.65;;;10.20;94.30;;;;;;5067898;28;20029;-75
2021/05/28 03:40:13;;;;;;;12.50;4.65;;;10.20;94.20;;;;;;5063604;28;20033;-75
2021/05/28 03:42:39;;;;;;;9.88;4.90;;;10.30;94.20;;;;;;5065889;28;20463;-75
2021/05/28 03:45:06;;;;;;;10.95;4.13;;;10.30;94.10;;;;;;5071943;28;20517;-75
2021/05/28 03:47:33;;;;;;;6.40;4.30;;;10.30;94.20;;;;;;5062826;28;20035;-75
2021/05/28 03:49:59;;;;;;;9.75;4.93;;;10.30;94.10;;;;;;5045251;28;20063;-76
2021/05/28 03:52:25;;;;;;;7.75;4.57;;;10.40;94.10;;;;;;5053480;28;20037;-75
2021/05/28 03:54:51;;;;;;;6.55;4.20;;;10.40;94.10;;;;;;5073267;28;20089;-75
2021/05/28 03:57:16;;;;;;;10.55;4.45;;;10.40;94.10;;;;;;5057541;28;20109;-75
2021/05/28 03:59:43;;;;;;;9.27;4.63;;;10.40;94.10;;;;;;5069873;28;20033;-75
2021/05/28 04:02:09;;;;;;;7.75;3.88;;;10.50;94.00;;;;;;5067699;28;20036;-75
2021/05/28 04:04:35;;;;;;;9.48;3.92;;;10.40;94.00;;;;;;5068786;28;20020;-75
2021/05/28 04:07:01;;;;;;;7.80;4.60;;;10.50;94.10;;;;;;5067966;28;20414;-74
2021/05/28 04:09:27;;;;;;;9.43;4.28;;;10.50;94.10;;;;;;5062239;28;20094;-73
2021/05/28 04:11:53;;;;;;;8.98;4.38;;;10.50;94.00;;;;;;5043707;28;20043;-73
2021/05/28 04:14:18;;;;;;;7.35;3.95;;;10.50;94.00;;;;;;5061986;28;20032;-74
2021/05/28 04:16:44;;;;;;;7.90;4.00;;;10.50;94.10;;;;;;5045433;28;20401;-75
2021/05/28 04:19:10;;;;;;;9.20;4.57;;;10.50;94.10;;;;;;5063039;28;20467;-75
2021/05/28 04:21:36;;;;;;;8.68;4.15;;;10.50;94.20;;;;;;5060867;28;20056;-75
2021/05/28 04:24:04;;;;;;;6.65;3.88;;;10.40;94.20;;;;;;5062962;28;20037;-75
2021/05/28 04:26:29;;;;;;;7.38;3.13;;;10.40;94.30;;;;;;5062194;28;20021;-75
2021/05/28 04:28:55;;;;;;;8.57;3.88;;;10.40;94.40;;;;;;5062882;28;20032;-74
2021/05/28 04:31:21;;;;;;;7.32;3.83;;;10.50;94.50;;;;;;5060259;28;20099;-75
2021/05/28 04:33:46;;;;;;;6.80;3.60;;;10.40;94.50;;;;;;5060240;28;20049;-75
2021/05/28 04:36:12;;;;;;;8.50;3.95;;;10.50;94.60;;;;;;5062994;28;20048;-75
2021/05/28 04:38:38;;;;;;;9.48;3.70;;;10.50;94.60;;;;;;5061136;28;20024;-75
2021/05/28 04:41:04;;;;;;;10.90;3.97;;;10.50;94.60;;;;;;5064750;28;20035;-75
2021/05/28 04:43:29;;;;;;;11.82;3.97;;;10.50;94.60;;;;;;5062060;28;20047;-75
2021/05/28 04:45:55;;;;;;;9.88;4.13;;;10.60;94.70;;;;;;5058085;28;20029;-75
2021/05/28 04:48:21;;;;;;;11.70;4.20;;;10.60;94.80;;;;;;5044649;28;20093;-75
2021/05/28 04:50:47;;;;;;;11.07;4.75;;;10.60;94.80;;;;;;5042902;28;20262;-75
2021/05/28 04:53:12;;;;;;;9.35;4.82;;;10.60;94.90;;;;;;5061486;28;20024;-75
2021/05/28 04:55:38;;;;;;;10.23;4.30;;;10.60;95.00;;;;;;5060799;28;20064;-76
2021/05/28 04:58:04;;;;;;;7.80;4.75;;;10.70;95.00;;;;;;5060408;28;20490;-75
2021/05/28 05:00:31;;;;;;;11.07;4.30;;;10.70;95.10;;;;;;5060597;28;20060;-75
2021/05/28 05:02:56;;;;;;;11.25;5.50;;;10.80;95.10;;;;;;5061662;28;20060;-75
2021/05/28 05:05:24;;;;;;;11.50;5.20;;;10.80;95.30;;;;;;5061653;28;20072;-75
2021/05/28 05:07:50;;;;;;;13.30;5.95;;;10.80;95.50;;;;;;5060242;28;20029;-75
2021/05/28 05:10:16;;;;;;;8.23;4.45;;;10.70;95.50;;;;;;5061203;28;20031;-75
2021/05/28 05:12:41;;;;;;;10.32;4.75;;;10.80;95.50;;;;;;5061224;28;20028;-75
2021/05/28 05:15:08;;;;;;;8.90;4.32;;;10.90;95.50;;;;;;5062272;28;20032;-75
2021/05/28 05:17:37;;;;;;;9.95;4.82;;;10.90;95.50;;;;;;5061024;28;20025;-75
2021/05/28 05:20:05;;;;;;;8.23;4.57;;;10.90;95.60;;;;;;5062325;28;20094;-75
2021/05/28 05:22:31;;;;;;;11.15;5.55;;;11.00;95.50;;;;;;5062107;28;20078;-75
2021/05/28 05:24:57;;;;;;;16.25;7.32;;;11.10;95.60;;;;;;5061168;28;21631;-75
2021/05/28 05:27:22;;;;;;;13.10;6.03;;;11.10;95.70;;;;;;5070214;28;20021;-74
2021/05/28 05:29:48;;;;;;;13.55;5.45;;;11.10;95.70;;;;;;5070096;28;20359;-74
2021/05/28 05:32:14;;;;;;;13.75;6.63;;;11.20;95.60;;;;;;5070519;28;20075;-75
2021/05/28 05:34:41;;;;;;;12.57;5.85;;;11.20;95.60;;;;;;5071533;28;20447;-74
2021/05/28 05:37:07;;;;;;;14.27;6.90;;;11.30;95.50;;;;;;5050270;28;20024;-75
2021/05/28 05:39:32;;;;;;;16.75;5.70;;;11.20;95.50;;;;;;5063106;28;20067;-74
2021/05/28 05:42:01;;;;;;;11.95;6.18;;;11.20;95.50;;;;;;5071704;28;20048;-74
2021/05/28 05:44:27;;;;;;;15.52;6.32;;;11.30;95.60;;;;;;5047864;28;20111;-75
2021/05/28 05:46:53;;;;;;;13.10;6.20;;;11.30;95.30;;;;;;5068790;28;20036;-74
2021/05/28 05:49:19;;;;;;;9.13;5.43;;;11.20;95.00;;;;;;5059501;28;20029;-75
2021/05/28 05:51:44;;;;;;;12.13;6.00;;;11.20;95.10;;;;;;5055451;28;20116;-75
2021/05/28 05:54:10;;;;;;;9.38;5.10;;;11.10;95.00;;;;;;5064554;28;20103;-73
2021/05/28 05:56:36;;;;;;;8.77;5.72;;;11.10;95.00;;;;;;5071651;28;20107;-74
2021/05/28 05:59:02;;;;;;;9.68;5.68;;;11.10;94.80;;;;;;5064282;28;20039;-75
2021/05/28 06:01:28;;;;;;;9.25;5.32;;;11.10;95.00;;;;;;5068274;28;20020;-75
2021/05/28 06:03:54;;;;;;;8.63;5.15;;;11.10;95.00;;;;;;5064844;28;20086;-76
2021/05/28 06:06:20;;;;;;;10.85;6.45;;;11.10;94.80;;;;;;5045322;28;20656;-77
2021/05/28 06:08:45;;;;;;;10.38;5.57;;;11.10;94.60;;;;;;5057730;28;20021;-75
2021/05/28 06:11:11;;;;;;;8.05;6.20;;;11.10;94.30;;;;;;5067130;28;20482;-79
2021/05/28 06:13:37;;;;;;;10.20;6.07;;;11.10;94.30;;;;;;5067966;28;20028;-78
2021/05/28 06:16:03;;;;;;;7.90;4.95;;;11.10;94.10;;;;;;5066524;28;20035;-77
2021/05/28 06:18:29;;;;;;;7.63;5.47;;;11.20;94.20;;;;;;5062088;28;20037;-77
2021/05/28 06:20:56;;;;;;;8.10;4.93;;;11.20;94.30;;;;;;5070789;28;20020;-78
2021/05/28 06:23:21;;;;;;;9.23;5.60;;;11.20;94.30;;;;;;5073320;28;20156;-77
2021/05/28 06:25:47;;;;;;;7.22;4.55;;;11.30;94.20;;;;;;5075865;28;20052;-77
2021/05/28 06:28:14;;;;;;;10.50;4.93;;;11.30;94.10;;;;;;5068176;28;20025;-76
2021/05/28 06:30:39;;;;;;;9.30;5.60;;;11.30;94.00;;;;;;5069450;28;20107;-76
2021/05/28 06:33:06;;;;;;;8.60;4.60;;;11.30;94.00;;;;;;5041667;28;20035;-78
2021/05/28 06:35:33;;;;;;;7.68;4.70;;;11.40;93.60;;;;;;5075022;28;20025;-76
2021/05/28 06:37:59;;;;;;;9.55;4.90;;;11.40;93.70;;;;;;5053923;28;20021;-77
2021/05/28 06:40:25;;;;;;;8.68;4.60;;;11.40;93.70;;;;;;5073148;28;20036;-77
2021/05/28 06:42:51;;;;;;;9.70;4.50;;;11.50;93.80;;;;;;5073117;28;20021;-77
2021/05/28 06:45:18;;;;;;;9.48;4.68;;;11.50;93.80;;;;;;5069201;28;20445;-76
2021/05/28 06:47:45;;;;;;;10.82;6.38;;;11.50;93.80;;;;;;5071778;28;20029;-76
2021/05/28 06:50:12;;;;;;;11.82;5.05;;;11.50;93.70;;;;;;5048218;28;20021;-76
2021/05/28 06:52:38;;;;;;;7.90;4.15;;;11.50;93.70;;;;;;5074042;28;20506;-77
2021/05/28 06:55:04;;;;;;;11.68;4.55;;;11.50;93.80;;;;;;5050865;28;20036;-77
2021/05/28 06:57:30;;;;;;;14.10;5.78;;;11.50;93.90;;;;;;5049237;28;20503;-77
2021/05/28 06:59:56;;;;;;;10.25;5.22;;;11.50;93.70;;;;;;5051000;28;20046;-77
2021/05/28 07:02:22;;;;;;;10.98;6.68;;;11.40;93.70;;;;;;5060990;28;20040;-76
2021/05/28 07:04:48;;;;;;;12.70;6.28;;;11.40;93.70;;;;;;5062218;28;20055;-76
2021/05/28 07:07:14;;;;;;;12.25;6.20;;;11.30;93.80;;;;;;5060575;28;20056;-76
2021/05/28 07:09:39;;;;;;;13.63;6.95;;;11.30;93.90;;;;;;5064775;28;20031;-77
2021/05/28 07:12:05;;;;;;;15.35;7.15;;;11.30;94.00;;;;;;5062508;28;20097;-75
2021/05/28 07:14:31;;;;;;;13.80;6.40;;;11.20;94.00;;;;;;5059889;28;20540;-74
2021/05/28 07:16:57;;;;;;;13.38;6.00;;;11.30;94.10;;;;;;5058466;28;20043;-76
2021/05/28 07:19:23;;;;;;;13.13;6.88;;;11.30;94.00;;;;;;5061559;28;20029;-77
2021/05/28 07:21:48;;;;;;;17.30;7.07;;;11.30;93.70;;;;;;5065873;28;20086;-76
2021/05/28 07:24:14;;;;;;;15.45;6.72;;;11.30;93.60;;;;;;5067577;28;20029;-76
2021/05/28 07:26:40;;;;;;;14.35;6.30;;;11.20;93.40;;;;;;5049556;28;20063;-77
2021/05/28 07:29:06;;;;;;;10.02;5.90;;;11.30;93.60;;;;;;5065365;28;20047;-76
2021/05/28 07:31:33;;;;;;;10.60;5.88;;;11.30;93.60;;;;;;5066872;28;20032;-77
2021/05/28 07:33:59;;;;;;;9.40;5.57;;;11.30;93.60;;;;;;5071822;28;20082;-77
2021/05/28 07:36:24;;;;;;;16.05;6.30;;;11.40;93.40;;;;;;5069062;28;20025;-77
2021/05/28 07:38:51;;;;;;;14.52;6.30;;;11.40;93.20;;;;;;5049163;28;20047;-77
2021/05/28 07:41:17;;;;;;;18.40;6.63;;;11.40;93.10;;;;;;5070114;28;20099;-77
2021/05/28 07:43:42;;;;;;;10.55;5.35;;;11.40;93.10;;;;;;5064276;28;20017;-77
2021/05/28 07:46:08;;;;;;;13.93;6.45;;;11.50;93.20;;;;;;5067614;28;20032;-77
2021/05/28 07:48:34;;;;;;;17.88;6.53;;;11.50;93.20;;;;;;5052699;28;20032;-76
2021/05/28 07:51:00;;;;;;;15.88;7.60;;;11.60;92.90;;;;;;5074580;28;20106;-78
2021/05/28 07:53:27;;;;;;;13.68;6.63;;;11.60;93.00;;;;;;5049725;28;20028;-73
2021/05/28 07:55:55;;;;;;;13.70;7.65;;;11.60;93.00;;;;;;5066334;28;20032;-77
2021/05/28 07:58:21;;;;;;;14.52;7.03;;;11.70;93.00;;;;;;5064828;28;20037;-75
2021/05/28 08:00:47;;;;;;;11.77;6.35;;;11.70;93.00;;;;;;5066705;28;20059;-76
2021/05/28 08:03:13;;;;;;;12.57;6.13;;;11.80;93.10;;;;;;5072803;28;20402;-78
2021/05/28 08:05:38;;;;;;;14.40;7.72;;;11.90;93.20;;;;;;5070294;28;20031;-75
2021/05/28 08:08:11;;;;;;;19.63;7.68;;;12.00;92.60;;;;;;5048537;28;20351;-77
2021/05/28 08:10:37;;;;;;;12.32;6.93;;;12.10;92.30;;;;;;5056407;28;20078;-76
2021/05/28 08:13:04;;;;;;;13.00;6.40;;;12.20;92.60;;;;;;5065535;28;20051;-77
2021/05/28 08:15:31;;;;;;;13.43;7.43;;;12.30;92.30;;;;;;5045506;28;20175;-74
2021/05/28 08:17:57;;;;;;;11.50;6.32;;;12.30;92.20;;;;;;5046623;28;20048;-77
2021/05/28 08:20:23;;;;;;;14.07;7.30;;;12.40;92.30;;;;;;5063754;28;20024;-76
2021/05/28 08:22:51;;;;;;;14.88;8.02;;;12.40;92.20;;;;;;5063473;28;20149;-75
2021/05/28 08:25:17;;;;;;;20.40;8.63;;;12.50;92.00;;;;;;5061018;28;20021;-76
2021/05/28 08:27:43;;;;;;;16.60;8.48;;;12.40;91.80;;;;;;5043532;28;20025;-77
2021/05/28 08:30:09;;;;;;;13.07;7.85;;;12.40;91.70;;;;;;5065474;28;20025;-75
2021/05/28 08:32:35;;;;;;;15.43;8.25;;;12.40;91.60;;;;;;5054033;28;20021;-76
2021/05/28 08:35:04;;;;;;;16.48;7.90;;;12.50;91.80;;;;;;5070052;28;20350;-77
2021/05/28 08:37:30;;;;;;;22.65;8.60;;;12.50;91.90;;;;;;5043304;28;20487;-77
2021/05/28 08:39:56;;;;;;;14.80;8.73;;;12.60;91.80;;;;;;5068157;28;20028;-77
2021/05/28 08:42:21;;;;;;;13.82;8.38;;;12.70;91.20;;;;;;5067384;28;20466;-77
2021/05/28 08:44:49;;;;;;;16.77;8.35;;;12.80;91.30;;;;;;5070687;28;20024;-77
2021/05/28 08:47:16;;;;;;;17.00;8.73;;;12.90;91.20;;;;;;5069730;28;20036;-77
2021/05/28 08:49:49;;;;;;;12.57;7.50;;;12.90;91.20;;;;;;5063627;28;20036;-77
2021/05/28 08:52:14;;;;;;;14.65;7.82;;;13.00;91.10;;;;;;5072428;28;20398;-77
2021/05/28 08:54:41;;;;;;;21.13;9.32;;;13.00;91.10;;;;;;5051484;28;20023;-78
2021/05/28 08:57:07;;;;;;;14.45;8.68;;;13.10;91.00;;;;;;5068169;28;20107;-78
2021/05/28 08:59:32;;;;;;;14.65;7.95;;;13.10;90.40;;;;;;5046466;28;20070;-77
2021/05/28 09:01:58;;;;;;;12.82;8.20;;;13.10;90.10;;;;;;5067741;28;20028;-78
2021/05/28 09:04:24;;;;;;;12.75;8.35;;;13.10;90.30;;;;;;5068548;28;20021;-77
2021/05/28 09:06:49;;;;;;;14.82;9.45;;;13.00;90.60;;;;;;5067580;28;20398;-77
2021/05/28 09:09:22;;;;;;;14.88;9.73;;;13.10;90.90;;;;;;5068938;28;20028;-77
2021/05/28 09:12:04;;;;;;;15.10;8.70;;;13.20;90.30;;;;;;5067194;28;20100;-77
2021/05/28 09:14:42;;;;;;;17.60;8.65;;;13.40;90.40;;;;;;5067869;28;20032;-77
2021/05/28 09:17:09;;;;;;;13.70;7.10;;;13.50;89.80;;;;;;5053190;28;20032;-78
2021/05/28 09:19:37;;;;;;;15.13;7.60;;;13.60;90.20;;;;;;5047310;28;20035;-78
2021/05/28 09:22:10;;;;;;;12.63;7.05;;;13.60;89.60;;;;;;5070522;28;20023;-77
2021/05/28 09:24:40;;;;;;;12.88;6.65;;;13.70;88.80;;;;;;5068058;28;20024;-77
2021/05/28 09:27:27;;;;;;;12.45;7.30;;;13.80;89.50;;;;;;5052419;28;20457;-74
2021/05/28 09:30:19;;;;;;;12.68;6.40;;;13.90;88.10;;;;;;5063640;28;20040;-78
2021/05/28 09:32:48;;;;;;;12.07;6.80;;;13.90;88.20;;;;;;5062552;28;20024;-78
2021/05/28 09:35:19;;;;;;;11.90;6.82;;;13.80;88.30;;;;;;5064320;28;20124;-78
2021/05/28 09:37:50;;;;;;;15.07;8.15;;;13.80;88.30;;;;;;5062707;28;20082;-78
2021/05/28 09:40:21;;;;;;;11.02;7.10;;;13.70;87.40;;;;;;5045642;28;20033;-79
2021/05/28 09:42:47;;;;;;;11.90;6.85;;;13.70;88.20;;;;;;5065618;28;20023;-79
2021/05/28 09:45:39;;;;;;;12.95;7.68;;;13.80;88.80;;;;;;5046818;28;20501;-78
2021/05/28 09:48:14;;;;;;;11.20;6.63;;;13.90;87.70;;;;;;5041047;28;20465;-78
2021/05/28 09:50:49;;;;;;;11.35;6.95;;;13.90;88.50;;;;;;5069719;28;20024;-78
2021/05/28 09:53:42;;;;;;;10.73;5.93;;;14.00;89.10;;;;;;5065585;28;20066;-77
2021/05/28 09:56:22;;;;;;;15.20;6.82;;;14.20;89.00;;;;;;5056151;28;20025;-79
2021/05/28 09:58:56;;;;;;;13.20;6.25;;;14.20;87.10;;;;;;5062990;28;20037;-79
2021/05/28 10:01:21;;;;;;;15.48;7.53;;;14.20;87.70;;;;;;5069723;28;20031;-79
2021/05/28 10:04:10;;;;;;;13.25;6.47;;;14.20;87.60;;;;;;5057138;28;20032;-78
2021/05/28 10:06:41;;;;;;;11.63;7.03;;;14.20;88.00;;;;;;5069642;28;20043;-79
2021/05/28 10:09:09;;;;;;;12.00;6.18;;;14.20;88.30;;;;;;5043273;28;20036;-80
2021/05/28 10:11:38;;;;;;;21.52;8.27;;;14.20;88.60;;;;;;5042837;28;20359;-79
2021/05/28 10:14:05;;;;;;;16.02;7.10;;;14.20;88.30;;;;;;5070597;28;20441;-76
2021/05/28 10:16:31;;;;;;;12.65;6.47;;;14.30;88.20;;;;;;5066539;28;20029;-76
2021/05/28 10:18:57;;;;;;;10.13;5.75;;;14.40;88.30;;;;;;5064561;28;20105;-79
2021/05/28 10:21:25;;;;;;;11.70;6.03;;;14.40;87.50;;;;;;5068065;28;20025;-78
2021/05/28 10:23:51;;;;;;;12.77;6.07;;;14.40;86.60;;;;;;5064207;28;20039;-77
2021/05/28 10:26:29;;;;;;;14.15;6.82;;;14.40;87.40;;;;;;5053718;28;20044;-78
2021/05/28 10:28:55;;;;;;;14.43;7.25;;;14.20;86.80;;;;;;5060908;28;20418;-78
2021/05/28 10:31:50;;;;;;;9.07;5.78;;;14.10;87.00;;;;;;5067635;28;20081;-76
2021/05/28 10:34:16;;;;;;;13.30;6.18;;;13.90;87.80;;;;;;5065793;28;20021;-78
2021/05/28 10:36:43;;;;;;;15.70;5.68;;;14.00;88.40;;;;;;5051206;28;20039;-78
2021/05/28 10:39:10;;;;;;;15.40;7.00;;;14.00;88.90;;;;;;5066516;28;20031;-78
2021/05/28 10:41:39;;;;;;;11.68;5.93;;;14.20;89.30;;;;;;5064857;28;20024;-77
2021/05/28 10:44:09;;;;;;;16.27;6.15;;;14.40;88.20;;;;;;5029824;28;20036;-79
2021/05/28 10:46:36;;;;;;;11.13;5.80;;;14.60;87.00;;;;;;5066534;28;20060;-76
2021/05/28 10:49:09;;;;;;;11.30;5.53;;;14.70;87.20;;;;;;5063374;28;20495;-78
2021/05/28 10:51:36;;;;;;;12.10;5.88;;;14.90;87.10;;;;;;5066367;28;20439;-76
2021/05/28 10:54:02;;;;;;;9.85;6.20;;;15.10;86.30;;;;;;5070545;28;20081;-74
2021/05/28 10:56:43;;;;;;;11.55;6.40;;;15.30;85.90;;;;;;5051470;28;20020;-75
2021/05/28 10:59:20;;;;;;;10.50;6.72;;;15.40;86.00;;;;;;5059732;28;20044;-75
2021/05/28 11:01:57;;;;;;;13.88;6.30;;;15.40;85.70;;;;;;5050797;28;20024;-75
2021/05/28 11:04:30;;;;;;;19.08;6.95;;;15.50;84.20;;;;;;5048775;28;20064;-74
2021/05/28 11:06:56;;;;;;;11.75;6.35;;;15.60;83.80;;;;;;5045742;28;20074;-74
2021/05/28 11:09:40;;;;;;;11.13;5.70;;;15.60;82.40;;;;;;5052560;28;20032;-75
2021/05/28 11:12:36;;;;;;;12.02;5.72;;;15.70;82.60;;;;;;5060562;28;20107;-75
2021/05/28 11:15:09;;;;;;;12.90;6.22;;;15.90;82.40;;;;;;5067159;28;20086;-75
2021/05/28 11:17:53;;;;;;;12.30;5.93;;;16.30;86.20;;;;;;5029861;28;20052;-77
2021/05/28 11:20:26;;;;;;;13.32;7.00;;;16.70;80.00;;;;;;5072286;28;20086;-77
2021/05/28 11:22:52;;;;;;;32.67;22.85;;;17.00;78.20;;;;;;5070498;28;20135;-77
2021/05/28 11:25:22;;;;;;;19.27;9.10;;;17.30;79.90;;;;;;5069366;28;20510;-77
2021/05/28 11:28:01;;;;;;;25.53;13.20;;;17.40;77.50;;;;;;5049181;28;20063;-78
2021/05/28 11:30:29;;;;;;;12.50;5.57;;;17.30;78.60;;;;;;5065592;28;20039;-79
2021/05/28 11:32:54;;;;;;;11.35;6.00;;;17.10;77.60;;;;;;5072931;28;20039;-77
2021/05/28 11:35:40;;;;;;;9.05;5.20;;;16.90;78.30;;;;;;5072622;28;20025;-77
2021/05/28 11:38:08;;;;;;;10.68;4.68;;;16.70;76.80;;;;;;5065961;28;20028;-76
2021/05/28 11:40:34;;;;;;;12.25;5.65;;;16.40;77.70;;;;;;5069438;28;20112;-79
2021/05/28 11:43:07;;;;;;;9.85;5.13;;;16.20;78.20;;;;;;5069589;28;20116;-75
2021/05/28 11:45:34;;;;;;;11.57;5.18;;;16.00;79.50;;;;;;5048577;28;20099;-78
2021/05/28 11:48:00;;;;;;;11.13;5.05;;;16.10;80.00;;;;;;5065039;28;20474;-78
2021/05/28 11:50:39;;;;;;;13.02;5.68;;;16.10;79.90;;;;;;5064226;28;20095;-78
2021/05/28 11:53:06;;;;;;;8.93;4.68;;;16.30;81.20;;;;;;5063396;28;20040;-78
2021/05/28 11:55:41;;;;;;;11.75;5.00;;;16.80;80.30;;;;;;5068704;28;20032;-77
2021/05/28 11:58:07;;;;;;;11.20;4.43;;;17.30;76.00;;;;;;5049278;28;20021;-78
2021/05/28 12:00:33;;;;;;;11.27;4.95;;;17.40;74.70;;;;;;5069702;28;20047;-78
2021/05/28 12:02:59;;;;;;;14.98;5.65;;;17.50;75.20;;;;;;5072193;28;20032;-77
2021/05/28 12:05:40;;;;;;;9.95;4.72;;;17.50;75.00;;;;;;5073774;28;20126;-77
2021/05/28 12:08:19;;;;;;;8.68;4.82;;;17.30;75.90;;;;;;5061730;28;20552;-79
2021/05/28 12:11:11;;;;;;;11.85;4.75;;;17.30;76.20;;;;;;5063036;28;20025;-76
2021/05/28 12:13:38;;;;;;;10.70;5.10;;;17.20;76.00;;;;;;5068523;28;20058;-75
2021/05/28 12:16:07;;;;;;;9.50;4.35;;;17.20;75.60;;;;;;5071773;28;20032;-76
2021/05/28 12:18:46;;;;;;;13.77;4.80;;;16.90;76.40;;;;;;5073065;28;20024;-77
2021/05/28 12:21:20;;;;;;;10.68;4.30;;;16.60;76.10;;;;;;5070712;28;20060;-77
2021/05/28 12:23:46;;;;;;;10.18;4.50;;;16.40;77.00;;;;;;5061708;28;20055;-77
2021/05/28 12:26:15;;;;;;;8.90;4.80;;;16.10;77.50;;;;;;5051670;28;20078;-76
2021/05/28 12:28:41;;;;;;;11.82;4.50;;;15.90;78.60;;;;;;5061605;28;20025;-77
2021/05/28 12:31:14;;;;;;;8.68;3.78;;;15.70;78.80;;;;;;5068480;28;20052;-76
2021/05/28 12:33:45;;;;;;;10.95;5.13;;;15.60;79.40;;;;;;5070633;28;20591;-77
2021/05/28 12:36:12;;;;;;;;;;;15.50;80.30;;;;;;5071742;28;20036;-77
2021/05/28 12:38:44;;;;;;;9.05;4.63;;;15.30;80.70;;;;;;5064259;28;20017;-77
2021/05/28 12:41:24;;;;;;;10.13;5.07;;;15.30;81.30;;;;;;5063716;28;20387;-77
2021/05/28 12:43:53;;;;;;;13.32;4.85;;;15.40;82.40;;;;;;5067857;28;20493;-77